EHVK

Volkel Air Base Airport

Uden, The Netherlands
METAR EHVK 221755Z AUTO 29004KT 260V330 9999 FEW077 SCT082 20/14 Q1009 BLU
Observed Flight Rules
Apr-22 @ 17:55 UTC (25 minutes ago) Visual Flight Rules
Wind Visibility Clouds
290° at 4 knots 10,000+ meters
  • Few at 7,700' AGL
  • Scattered at 8,200' AGL
Temperatures Readings
Current 20°C / 68°F
Dewpoint 14°C / 57°F
Humidity 69%
Altimeter 29.79" Hg
Pressure 1009 hPa
Elevation 21
METAR EHVK 221755Z AUTO 29004KT 260V330 9999 FEW077 SCT082 20/14 Q1009 BLU
Observed Flight Rules
Apr-22 @ 17:55 UTC
(25 minutes ago)
VFR
Wind Visibility
290° at 4 knots 10,000+ meters
Clouds
  • Few at 7,700' AGL
  • Scattered at 8,200' AGL
Temperature Dewpoint
20°C / 68°F 14°C / 57°F
Humidity Altimeter Pressure
69% 29.79" Hg 1009 hPa